Time;durP1;ratioP1;P1;durP2;ratioP2;P2;SDS_P1;SDS_P2;PMS_P1;PMS_P2;Temp;Humidity;BMP_temperature;BMP_pressure;BME280_temperature;BME280_humidity;BME280_pressure;Samples;Min_cycle;Max_cycle;Signal;HPM_P1;HPM_P2
2023/11/15 07:22:29;;;;;;;19.95;2.95;;;;;;;7.14;100.00;96659.47;2093777;27;20563;-68
2023/11/15 08:31:53;;;;;;;16.13;2.35;;;;;;;7.49;100.00;96752.81;2084773;28;20555;-72
2023/11/15 08:32:55;;;;;;;12.63;2.40;;;;;;;7.56;100.00;96746.53;2082218;28;20200;-72
2023/11/15 08:36:13;;;;;;;7.82;1.50;;;;;;;7.86;100.00;96751.69;2091683;27;20561;-72
2023/11/15 08:37:14;;;;;;;7.38;1.23;;;;;;;8.79;100.00;96749.41;2089441;28;20199;-66
2023/11/15 08:38:18;;;;;;;3.35;1.00;;;;;;;9.62;96.39;96742.00;2089942;28;20573;-66
2023/11/15 08:39:27;;;;;;;5.80;1.17;;;;;;;9.46;94.43;96746.97;2089958;28;20237;-67
2023/11/15 08:40:29;;;;;;;2.63;1.00;;;;;;;9.23;94.61;96743.50;2088009;28;20201;-66
2023/11/15 08:41:30;;;;;;;6.65;1.30;;;;;;;9.23;95.23;96745.22;2089537;28;20222;-67
2023/11/15 08:42:32;;;;;;;4.72;1.13;;;;;;;9.77;93.69;96750.97;2091555;28;20195;-66
2023/11/15 08:43:33;;;;;;;5.05;1.42;;;;;;;9.85;91.74;96750.66;2089691;28;20293;-67
2023/11/15 08:44:41;;;;;;;7.05;1.30;;;;;;;9.75;93.22;96748.44;2093987;28;20199;-67
2023/11/15 08:45:44;;;;;;;5.03;1.15;;;;;;;9.48;94.97;96743.41;2093030;28;20228;-72
2023/11/15 08:50:00;;;;;;;6.38;1.00;;;;;;;8.38;98.46;96758.63;2086886;28;20572;-71
2023/11/15 08:54:17;;;;;;;4.93;0.90;;;;;;;7.95;100.00;96753.97;2094504;27;20779;-71
2023/11/15 08:58:32;;;;;;;5.32;1.10;;;;;;;7.90;100.00;96775.81;2108069;27;20554;-71
2023/11/15 09:07:04;;;;;;;5.13;1.10;;;;;;;7.96;100.00;96776.47;2090107;28;20662;-71
2023/11/15 09:08:05;;;;;;;3.47;0.80;;;;;;;8.28;100.00;96756.34;2086316;28;20224;-72
2023/11/15 09:09:07;;;;;;;6.95;1.40;;;;;;;9.19;97.23;96772.31;2089319;28;20210;-72
2023/11/15 09:10:11;;;;;;;8.43;1.70;;;;;;;9.02;96.87;96775.56;2087340;28;20199;-66
2023/11/15 09:11:13;;;;;;;3.90;1.25;;;;;;;8.77;95.80;96758.19;2080850;28;20224;-66
2023/11/15 09:12:27;;;;;;;5.82;1.10;;;;;;;8.62;96.91;96760.44;2077950;28;20237;-66
2023/11/15 09:13:29;;;;;;;4.13;0.85;;;;;;;8.95;95.89;96770.56;2080922;28;20203;-67
2023/11/15 09:14:34;;;;;;;4.13;1.05;;;;;;;8.85;95.28;96774.41;2082030;28;20259;-66
2023/11/15 09:15:35;;;;;;;5.00;1.00;;;;;;;8.86;94.34;96772.63;2063660;28;20304;-67
2023/11/15 09:16:37;;;;;;;5.22;0.90;;;;;;;8.65;94.98;96768.13;2064857;28;20226;-67
2023/11/15 09:17:46;;;;;;;4.32;0.70;;;;;;;8.66;96.82;96782.84;2070650;28;20202;-66
2023/11/15 09:18:50;;;;;;;4.13;1.38;;;;;;;8.61;97.10;96776.13;2072010;28;20240;-67
2023/11/15 09:19:56;;;;;;;2.20;0.88;;;;;;;8.53;97.18;96784.16;2068099;28;20860;-67
2023/11/15 09:24:02;;;;;;;5.00;1.27;;;;;;;8.32;98.84;96763.16;2116222;27;20545;-66
2023/11/15 09:38:57;;;;;;;4.22;0.98;;;;;;;7.76;100.00;96794.47;2073866;27;1231659;-74
2023/11/15 09:43:19;;;;;;;5.53;1.23;;;;;;;7.67;100.00;96803.41;2087530;28;20567;-71
2023/11/15 09:47:07;;;;;;;10.82;1.00;;;;;;;7.75;100.00;96805.75;2084547;28;20589;-71
2023/11/15 09:51:06;;;;;;;4.10;1.20;;;;;;;7.93;100.00;96812.13;2081872;28;21089;-71
2023/11/15 09:52:10;;;;;;;8.73;1.38;;;;;;;7.95;100.00;96820.75;2077651;28;20195;-71
2023/11/15 09:55:33;;;;;;;8.85;1.00;;;;;;;8.20;100.00;96825.16;2105044;27;20550;-73
2023/11/15 09:56:35;;;;;;;8.38;1.35;;;;;;;8.47;100.00;96819.06;2085876;28;20200;-74
2023/11/15 09:57:36;;;;;;;3.95;0.80;;;;;;;9.27;100.00;96820.63;2080235;28;20200;-74
2023/11/15 09:58:38;;;;;;;3.75;0.93;;;;;;;9.75;97.69;96824.06;2079709;28;20628;-74
2023/11/15 09:59:40;;;;;;;3.90;0.90;;;;;;;9.66;97.33;96816.56;2067740;28;20210;-74
2023/11/15 10:00:52;;;;;;;6.07;1.85;;;;;;;9.34;97.68;96818.66;2062700;28;20234;-74
2023/11/15 10:01:54;;;;;;;2.75;0.90;;;;;;;9.34;97.50;96823.03;2076789;28;20446;-74
2023/11/15 10:02:56;;;;;;;5.20;0.90;;;;;;;9.14;98.19;96819.38;2079182;28;20205;-74
2023/11/15 10:03:59;;;;;;;4.97;1.75;;;;;;;9.08;98.95;96811.81;2081483;28;20193;-75
2023/11/15 10:05:22;;;;;;;10.15;1.75;;;;;;;9.06;100.00;96824.03;2080643;28;20205;-74
2023/11/15 10:06:25;;;;;;;4.38;1.40;;;;;;;9.09;99.37;96823.91;2086674;28;20228;-74
2023/11/15 10:07:26;;;;;;;4.25;1.70;;;;;;;9.22;99.02;96830.38;2094699;28;20192;-74
2023/11/15 10:08:28;;;;;;;4.32;1.10;;;;;;;9.81;95.92;96822.97;2087078;28;20267;-74
2023/11/15 10:09:39;;;;;;;4.07;1.10;;;;;;;9.84;93.30;96822.88;2088097;28;20734;-74
2023/11/15 10:10:44;;;;;;;4.82;1.30;;;;;;;9.59;93.27;96826.41;2082777;28;20270;-74
2023/11/15 10:11:49;;;;;;;5.90;1.30;;;;;;;9.56;93.72;96826.53;2073366;28;20636;-74
2023/11/15 10:12:53;;;;;;;5.32;1.50;;;;;;;9.31;94.41;96822.22;2070194;28;20203;-74
2023/11/15 10:14:09;;;;;;;6.88;1.05;;;;;;;9.29;95.24;96831.00;2069644;28;20205;-74
2023/11/15 10:15:12;;;;;;;7.07;1.05;;;;;;;9.05;95.89;96833.56;2074402;28;20217;-74
2023/11/15 10:16:24;;;;;;;4.55;0.90;;;;;;;8.94;96.31;96835.72;2084932;28;20247;-74
2023/11/15 10:17:45;;;;;;;2.75;1.05;;;;;;;8.87;98.55;96829.88;2083836;28;20196;-75
2023/11/15 10:18:48;;;;;;;5.97;0.80;;;;;;;8.77;98.45;96825.88;2079531;28;20197;-68
2023/11/15 10:19:51;;;;;;;6.47;1.15;;;;;;;8.67;99.24;96833.16;2079225;28;20197;-69
2023/11/15 10:21:08;;;;;;;3.95;0.80;;;;;;;8.65;100.00;96828.00;2077864;28;20232;-68
2023/11/15 10:22:14;;;;;;;4.55;1.40;;;;;;;8.64;100.00;96834.09;2079748;28;20262;-68
2023/11/15 10:23:27;;;;;;;6.45;0.90;;;;;;;8.70;100.00;96830.47;2086466;28;20200;-67
2023/11/15 10:24:29;;;;;;;2.85;1.00;;;;;;;8.67;100.00;96835.75;2085843;28;20339;-68
2023/11/15 10:25:47;;;;;;;15.20;1.30;;;;;;;8.64;100.00;96826.28;2080124;28;20197;-68
2023/11/15 10:26:50;;;;;;;6.13;1.10;;;;;;;8.70;100.00;96830.47;2082690;28;20730;-68
2023/11/15 10:28:00;;;;;;;5.88;1.10;;;;;;;8.79;100.00;96837.09;2077721;28;20292;-68
2023/11/15 10:29:12;;;;;;;7.10;1.38;;;;;;;8.78;100.00;96833.63;2081165;28;20250;-68
2023/11/15 10:30:16;;;;;;;6.82;1.55;;;;;;;8.70;100.00;96819.19;2073618;28;20193;-68
2023/11/15 10:31:18;;;;;;;5.82;1.15;;;;;;;8.79;100.00;96831.91;2069358;28;20236;-68
2023/11/15 10:32:21;;;;;;;5.72;1.48;;;;;;;8.62;100.00;96827.25;2082875;28;20193;-67
2023/11/15 10:33:23;;;;;;;7.50;1.60;;;;;;;8.67;100.00;96835.75;2083573;28;20201;-68
2023/11/15 10:34:32;;;;;;;8.95;1.65;;;;;;;8.59;100.00;96836.00;2090367;28;20239;-68
2023/11/15 10:35:35;;;;;;;5.03;1.20;;;;;;;8.64;100.00;96834.09;2085766;28;20209;-68
2023/11/15 10:36:37;;;;;;;4.70;1.00;;;;;;;8.68;100.00;96831.41;2079724;28;20666;-68
2023/11/15 10:37:49;;;;;;;3.30;1.42;;;;;;;8.65;100.00;96832.38;2090764;28;20257;-67
2023/11/15 10:38:55;;;;;;;3.00;0.90;;;;;;;8.80;100.00;96828.41;2081053;28;20196;-68
2023/11/15 10:39:57;;;;;;;8.75;1.50;;;;;;;9.13;100.00;96828.13;2076957;28;20205;-68
2023/11/15 10:40:58;;;;;;;5.55;0.98;;;;;;;9.11;100.00;96825.53;2078910;28;20224;-68
2023/11/15 10:42:00;;;;;;;5.10;0.95;;;;;;;9.01;99.25;96821.56;2089040;28;20597;-67
2023/11/15 10:43:04;;;;;;;13.82;1.25;;;;;;;9.23;99.82;96829.47;2083177;28;20323;-68
2023/11/15 10:44:07;;;;;;;8.43;1.27;;;;;;;9.35;99.92;96824.72;2074168;28;20584;-68
2023/11/15 10:45:15;;;;;;;3.95;1.00;;;;;;;9.41;100.00;96821.91;2076563;28;20309;-74
2023/11/15 10:46:22;;;;;;;6.95;1.65;;;;;;;9.52;99.21;96816.25;2074985;28;20228;-74
2023/11/15 10:47:27;;;;;;;2.22;0.85;;;;;;;9.99;95.77;96810.97;2078211;28;20616;-75
2023/11/15 10:48:33;;;;;;;2.55;1.00;;;;;;;10.32;93.86;96817.50;2082729;28;20644;-68
2023/11/15 10:49:43;;;;;;;5.35;1.30;;;;;;;10.46;92.42;96799.53;2084543;28;20223;-68
2023/11/15 10:50:50;;;;;;;5.68;1.27;;;;;;;10.32;93.59;96807.91;2061959;28;20217;-68
2023/11/15 10:51:54;;;;;;;4.70;1.23;;;;;;;9.75;92.74;96799.72;2076435;28;20731;-68
2023/11/15 10:52:56;;;;;;;13.88;1.17;;;;;;;9.44;92.84;96806.97;2086785;28;20267;-67
2023/11/15 10:53:59;;;;;;;5.88;1.23;;;;;;;9.44;94.15;96806.97;2084100;28;20695;-68
2023/11/15 10:55:01;;;;;;;6.88;1.40;;;;;;;9.58;91.67;96798.63;2077419;28;20241;-69
2023/11/15 10:56:05;;;;;;;6.03;1.15;;;;;;;10.45;90.25;96795.25;2071195;28;20230;-68
2023/11/15 10:57:07;;;;;;;7.07;1.48;;;;;;;11.34;86.49;96810.56;2085377;28;20585;-69
2023/11/15 10:58:11;;;;;;;5.40;1.35;;;;;;;11.29;86.06;96805.56;2082445;28;20235;-68
2023/11/15 10:59:14;;;;;;;7.72;1.80;;;;;;;11.56;84.81;96808.66;2077399;28;20200;-68
2023/11/15 11:00:21;;;;;;;7.25;1.30;;;;;;;12.72;80.92;96810.16;2078574;28;20691;-69
2023/11/15 11:01:23;;;;;;;3.42;1.05;;;;;;;12.93;77.50;96796.91;2077959;28;20272;-68
2023/11/15 11:02:29;;;;;;;6.57;1.63;;;;;;;13.19;75.65;96804.25;2078618;28;20687;-69
2023/11/15 11:03:31;;;;;;;5.47;1.33;;;;;;;12.56;76.07;96795.19;2076780;28;20239;-69
2023/11/15 11:04:36;;;;;;;8.30;1.55;;;;;;;12.75;77.06;96794.28;2078327;28;20259;-69
2023/11/15 11:05:49;;;;;;;5.15;1.40;;;;;;;11.49;79.88;96809.03;2081843;28;20198;-69
2023/11/15 11:07:04;;;;;;;6.00;1.00;;;;;;;10.80;82.25;96803.31;2072140;28;20198;-68
2023/11/15 11:08:10;;;;;;;8.55;1.13;;;;;;;11.13;82.84;96808.00;2073154;28;20645;-68
2023/11/15 11:09:47;;;;;;;5.10;1.20;;;;;;;10.51;83.67;96797.56;2075259;28;20201;-69
2023/11/15 11:11:17;;;;;;;7.32;1.45;;;;;;;11.35;82.78;96796.56;2067362;28;20746;-68
2023/11/15 11:12:22;;;;;;;3.67;1.05;;;;;;;12.88;78.74;96797.94;2077417;28;20197;-69
2023/11/15 11:13:24;;;;;;;5.72;1.20;;;;;;;12.91;77.43;96794.31;2069298;28;20197;-69
2023/11/15 11:14:30;;;;;;;6.85;1.15;;;;;;;12.74;77.15;96801.28;2070191;28;20557;-70
2023/11/15 11:15:32;;;;;;;4.93;1.13;;;;;;;13.22;74.96;96798.81;2069118;28;20218;-69
2023/11/15 11:16:37;;;;;;;4.30;1.10;;;;;;;13.11;75.88;96801.16;2072319;28;20198;-69
2023/11/15 11:17:42;;;;;;;12.70;1.98;;;;;;;12.68;76.65;96809.44;2072280;28;20288;-69
2023/11/15 11:19:11;;;;;;;4.15;1.10;;;;;;;12.25;75.76;96812.44;2077908;28;20200;-69
2023/11/15 11:20:26;;;;;;;2.08;0.80;;;;;;;11.48;80.45;96804.69;2076731;28;20562;-69
2023/11/15 11:22:03;;;;;;;6.72;1.02;;;;;;;10.86;80.80;96804.84;2072437;28;20225;-69
2023/11/15 11:23:21;;;;;;;9.07;1.33;;;;;;;11.00;80.69;96794.63;2074204;28;20198;-68
2023/11/15 11:24:23;;;;;;;2.80;1.10;;;;;;;10.83;82.67;96797.13;2084642;28;20203;-68
2023/11/15 11:25:24;;;;;;;6.47;1.10;;;;;;;10.53;83.61;96787.91;2079709;28;20201;-69
2023/11/15 11:26:36;;;;;;;9.18;1.30;;;;;;;10.19;84.22;96783.22;2068077;28;20682;-68
2023/11/15 11:27:42;;;;;;;7.93;1.20;;;;;;;10.04;86.21;96793.34;2062026;28;20201;-69
2023/11/15 11:29:02;;;;;;;1.73;0.88;;;;;;;9.84;85.79;96780.25;2061065;28;20203;-68
2023/11/15 11:30:11;;;;;;;8.95;1.95;;;;;;;9.95;86.27;96792.00;2073832;28;20204;-68
2023/11/15 11:31:19;;;;;;;4.32;0.90;;;;;;;10.22;85.09;96794.41;2072579;28;20221;-67
2023/11/15 11:32:31;;;;;;;4.15;1.00;;;;;;;10.49;84.53;96786.38;2071009;28;20205;-67
2023/11/15 11:33:33;;;;;;;5.03;1.38;;;;;;;11.79;80.06;96791.06;2070396;28;20216;-67
2023/11/15 11:34:37;;;;;;;6.28;1.33;;;;;;;12.67;76.76;96785.94;2072321;28;20193;-67
2023/11/15 11:35:42;;;;;;;5.97;1.10;;;;;;;12.87;76.00;96790.19;2073461;28;20846;-67
2023/11/15 11:36:49;;;;;;;3.60;1.00;;;;;;;11.54;77.64;96783.50;2081380;28;20192;-67
2023/11/15 11:37:55;;;;;;;8.88;1.13;;;;;;;11.26;78.45;96776.91;2076992;28;20201;-67
2023/11/15 11:38:56;;;;;;;2.22;0.70;;;;;;;11.23;79.25;96793.59;2076534;28;20254;-67
2023/11/15 11:40:00;;;;;;;7.78;1.30;;;;;;;11.31;79.21;96792.41;2075741;28;20197;-68
2023/11/15 11:41:02;;;;;;;7.38;1.30;;;;;;;11.83;78.27;96787.38;2081126;28;20658;-68
2023/11/15 11:42:05;;;;;;;5.95;1.05;;;;;;;12.85;74.81;96771.06;2080862;28;20757;-68
2023/11/15 11:43:22;;;;;;;5.38;1.00;;;;;;;13.55;72.78;96776.97;2074892;28;20201;-68
2023/11/15 11:44:25;;;;;;;5.97;1.55;;;;;;;13.28;72.79;96784.56;2073491;28;20219;-67
2023/11/15 11:45:27;;;;;;;8.48;1.30;;;;;;;13.65;73.10;96779.09;2071365;28;20341;-68
2023/11/15 11:46:28;;;;;;;3.78;1.00;;;;;;;13.33;72.26;96781.66;2064908;28;20226;-72
2023/11/15 11:47:29;;;;;;;7.50;1.00;;;;;;;12.81;74.51;96782.63;2072614;28;20209;-72
2023/11/15 11:48:31;;;;;;;3.88;1.27;;;;;;;12.07;75.26;96777.56;2074345;28;20735;-71
2023/11/15 11:49:46;;;;;;;7.60;2.70;;;;;;;12.32;75.63;96773.72;2076116;28;20707;-72
2023/11/15 11:50:55;;;;;;;4.43;1.20;;;;;;;11.60;78.04;96773.63;2064577;28;20272;-72
2023/11/15 11:51:57;;;;;;;9.32;1.10;;;;;;;11.23;78.79;96780.53;2072071;28;20256;-71
2023/11/15 11:53:01;;;;;;;3.95;0.88;;;;;;;10.95;80.14;96771.31;2070889;28;20204;-71
2023/11/15 11:54:03;;;;;;;4.03;1.15;;;;;;;10.95;82.28;96773.06;2076831;28;20425;-71
2023/11/15 11:55:06;;;;;;;6.63;1.10;;;;;;;10.95;82.52;96770.47;2076792;28;20210;-72
2023/11/15 11:56:09;;;;;;;4.57;0.90;;;;;;;10.49;80.47;96772.44;2074046;28;20450;-72
2023/11/15 11:57:21;;;;;;;9.07;3.00;;;;;;;10.54;82.33;96778.31;2072903;28;20204;-71
2023/11/15 11:58:28;;;;;;;10.30;3.78;;;;;;;10.43;81.71;96778.78;2072567;28;20290;-71
2023/11/15 11:59:29;;;;;;;5.28;1.70;;;;;;;10.43;82.06;96773.56;2077475;28;20624;-72
2023/11/15 12:00:31;;;;;;;4.07;1.80;;;;;;;10.51;83.17;96781.91;2063997;28;20293;-71
2023/11/15 12:01:46;;;;;;;6.32;1.20;;;;;;;10.30;80.83;96767.97;2065374;28;20195;-71
2023/11/15 12:02:51;;;;;;;7.43;1.00;;;;;;;10.58;81.30;96772.06;2073891;28;20236;-71
2023/11/15 12:04:04;;;;;;;4.10;0.80;;;;;;;10.23;80.64;96771.75;2085531;28;20300;-71
2023/11/15 12:05:07;;;;;;;3.42;0.95;;;;;;;10.17;80.86;96769.38;2088994;28;20196;-72
2023/11/15 12:06:10;;;;;;;4.00;1.10;;;;;;;11.44;79.28;96773.47;2069363;28;20308;-71
2023/11/15 12:07:13;;;;;;;9.88;1.33;;;;;;;12.33;74.36;96761.44;2081189;28;20196;-72
2023/11/15 12:08:15;;;;;;;4.45;1.15;;;;;;;12.34;73.45;96760.53;2077065;28;20574;-71
2023/11/15 12:09:23;;;;;;;6.00;1.05;;;;;;;12.82;73.73;96753.72;2075460;28;20258;-72
2023/11/15 12:10:25;;;;;;;12.00;1.23;;;;;;;13.32;71.91;96758.97;2079007;28;20198;-73
2023/11/15 12:11:27;;;;;;;5.72;1.15;;;;;;;12.76;72.65;96772.41;2074625;28;20232;-72
2023/11/15 12:12:29;;;;;;;4.55;1.20;;;;;;;13.19;71.55;96761.41;2071244;28;20608;-71
2023/11/15 12:13:48;;;;;;;3.63;0.98;;;;;;;13.69;69.44;96757.88;2068887;28;20202;-72
2023/11/15 12:14:51;;;;;;;5.70;1.13;;;;;;;13.66;70.27;96765.06;2071243;28;20627;-71
2023/11/15 12:15:53;;;;;;;6.57;1.40;;;;;;;13.07;71.03;96760.31;2070967;28;20248;-71
2023/11/15 12:16:54;;;;;;;4.60;1.52;;;;;;;13.11;72.13;96768.88;2067479;28;20720;-72
2023/11/15 12:17:58;;;;;;;4.90;1.33;;;;;;;12.49;74.12;96764.16;2066069;28;20549;-71
2023/11/15 12:19:03;;;;;;;6.22;1.50;;;;;;;11.61;74.70;96766.63;2080892;28;20209;-71
2023/11/15 12:20:10;;;;;;;2.28;0.73;;;;;;;11.56;77.98;96766.00;2082521;28;20221;-71
2023/11/15 12:21:12;;;;;;;3.50;0.90;;;;;;;11.60;78.21;96760.56;2074693;28;20223;-70
2023/11/15 12:22:14;;;;;;;5.55;0.95;;;;;;;11.74;76.30;96769.50;2077628;28;20288;-68
2023/11/15 12:23:17;;;;;;;8.57;1.38;;;;;;;12.24;75.11;96765.41;2073735;28;20226;-68
2023/11/15 12:24:23;;;;;;;3.28;1.00;;;;;;;11.97;75.67;96770.19;2071321;28;20197;-68
2023/11/15 12:25:25;;;;;;;3.67;0.90;;;;;;;12.74;74.51;96772.47;2070219;28;20213;-68
2023/11/15 12:26:28;;;;;;;4.22;0.93;;;;;;;13.20;73.05;96778.84;2075714;28;20280;-68
2023/11/15 12:27:32;;;;;;;1.73;0.88;;;;;;;12.89;72.29;96759.50;2080580;28;20212;-69
2023/11/15 12:28:33;;;;;;;4.50;1.00;;;;;;;13.11;72.36;96763.63;2070244;28;20211;-69
2023/11/15 12:29:35;;;;;;;3.80;0.90;;;;;;;13.33;71.45;96765.94;2065005;28;20669;-69
2023/11/15 12:30:37;;;;;;;2.85;1.00;;;;;;;13.14;73.20;96758.19;2049252;28;20671;-68
2023/11/15 12:31:39;;;;;;;7.55;1.10;;;;;;;12.25;73.24;96757.47;2073431;28;20201;-68
2023/11/15 12:32:41;;;;;;;5.07;1.08;;;;;;;11.74;76.31;96762.50;2075896;28;20253;-67
2023/11/15 12:33:44;;;;;;;2.92;0.82;;;;;;;11.26;77.80;96769.94;2074604;28;20588;-68
2023/11/15 12:34:46;;;;;;;5.70;1.00;;;;;;;10.85;79.73;96753.50;2074274;28;20201;-71
2023/11/15 12:35:51;;;;;;;5.50;1.02;;;;;;;10.78;79.86;96759.00;2071174;28;20204;-71
2023/11/15 12:36:53;;;;;;;5.13;1.00;;;;;;;10.60;81.35;96760.66;2071737;28;20213;-71
2023/11/15 12:37:56;;;;;;;4.80;1.00;;;;;;;10.41;81.76;96770.16;2075303;28;20224;-71
2023/11/15 12:38:57;;;;;;;7.15;1.10;;;;;;;10.21;82.02;96763.13;2075319;28;20739;-71
2023/11/15 12:39:59;;;;;;;4.82;1.02;;;;;;;10.23;83.02;96758.69;2071836;28;20197;-71
2023/11/15 12:41:04;;;;;;;8.27;1.05;;;;;;;10.61;82.18;96754.50;2071059;28;20593;-72
2023/11/15 12:42:08;;;;;;;3.47;0.90;;;;;;;10.95;81.48;96766.06;2071326;28;20232;-72
2023/11/15 12:43:27;;;;;;;3.58;1.23;;;;;;;10.72;81.80;96756.66;2073850;28;20190;-71
2023/11/15 12:44:44;;;;;;;4.60;1.00;;;;;;;10.10;83.83;96758.34;2071926;28;20205;-72
2023/11/15 12:45:46;;;;;;;2.92;0.70;;;;;;;9.91;84.64;96753.88;2071978;28;20197;-71
2023/11/15 12:46:52;;;;;;;4.63;1.00;;;;;;;10.08;85.12;96757.56;2068699;28;20198;-71
2023/11/15 12:48:04;;;;;;;3.97;1.00;;;;;;;9.90;83.83;96756.56;2069404;28;20248;-71
2023/11/15 12:49:13;;;;;;;6.07;0.80;;;;;;;9.92;86.11;96763.41;2070267;28;20244;-67
2023/11/15 12:50:17;;;;;;;4.97;1.15;;;;;;;9.93;86.80;96759.06;2069115;28;20645;-67
2023/11/15 12:51:19;;;;;;;4.60;1.10;;;;;;;10.09;87.97;96757.53;2074541;28;20225;-68
2023/11/15 12:52:36;;;;;;;7.28;1.30;;;;;;;9.90;86.36;96752.19;2088911;28;20207;-67
2023/11/15 12:53:48;;;;;;;2.67;0.90;;;;;;;9.84;87.08;96752.44;2078155;28;20255;-68
2023/11/15 12:54:54;;;;;;;4.00;1.00;;;;;;;9.95;87.31;96767.66;2074222;28;20196;-67
2023/11/15 12:55:56;;;;;;;4.45;1.10;;;;;;;10.02;86.63;96769.09;2069306;28;20278;-68
2023/11/15 12:57:07;;;;;;;8.80;0.90;;;;;;;9.85;85.96;96764.56;2069685;28;20281;-69
2023/11/15 12:58:09;;;;;;;2.90;0.88;;;;;;;10.40;84.70;96765.88;2068780;28;20203;-69
2023/11/15 12:59:14;;;;;;;3.33;0.85;;;;;;;10.84;82.85;96760.47;2062307;28;20752;-70
2023/11/15 13:00:31;;;;;;;4.93;0.80;;;;;;;10.52;83.99;96761.88;2065036;28;20194;-72
2023/11/15 13:01:32;;;;;;;3.75;0.88;;;;;;;10.32;85.92;96765.28;2070192;28;20226;-72
2023/11/15 13:02:36;;;;;;;3.65;0.80;;;;;;;10.10;86.55;96760.97;2069691;28;20205;-72
2023/11/15 13:03:39;;;;;;;5.95;1.33;;;;;;;10.02;87.55;96768.25;2069054;28;20201;-72
2023/11/15 13:04:45;;;;;;;5.50;2.70;;;;;;;9.72;87.46;96766.78;2075177;28;20205;-73
2023/11/15 13:05:52;;;;;;;10.07;4.85;;;;;;;9.63;87.93;96764.56;2071914;28;20197;-71
2023/11/15 13:06:53;;;;;;;5.38;2.13;;;;;;;9.54;88.76;96767.53;2072409;28;20193;-72
2023/11/15 13:07:55;;;;;;;4.80;2.15;;;;;;;9.41;89.59;96756.72;2072233;28;20795;-70
2023/11/15 13:09:02;;;;;;;8.23;2.58;;;;;;;9.38;90.65;96754.22;2064212;28;20712;-70
2023/11/15 13:10:04;;;;;;;5.30;0.82;;;;;;;9.28;90.48;96757.19;2062860;28;20193;-67
2023/11/15 13:11:06;;;;;;;3.00;0.90;;;;;;;9.37;91.20;96771.63;2068748;28;20232;-68
2023/11/15 13:12:08;;;;;;;3.80;1.20;;;;;;;9.35;91.92;96780.41;2071462;28;20209;-67
2023/11/15 13:13:11;;;;;;;5.72;1.23;;;;;;;9.29;91.16;96778.88;2073621;28;20194;-67
2023/11/15 13:14:16;;;;;;;7.80;1.20;;;;;;;9.24;91.21;96781.69;2072011;28;20789;-67
2023/11/15 13:15:18;;;;;;;4.75;1.02;;;;;;;9.18;90.95;96775.81;2073671;28;20663;-68
2023/11/15 13:16:21;;;;;;;5.85;1.00;;;;;;;9.14;90.54;96777.69;2072585;28;20225;-67
2023/11/15 13:17:26;;;;;;;3.92;0.95;;;;;;;9.18;91.26;96773.22;2070729;28;20198;-67
2023/11/15 13:18:28;;;;;;;4.30;1.00;;;;;;;9.10;90.68;96773.50;2076650;28;20212;-68
2023/11/15 13:19:30;;;;;;;5.32;0.95;;;;;;;9.09;90.05;96775.28;2082042;28;20201;-67
2023/11/15 13:20:35;;;;;;;2.65;0.85;;;;;;;9.01;91.04;96781.66;2080997;28;20277;-67
2023/11/15 13:21:37;;;;;;;10.32;1.20;;;;;;;9.02;91.29;96775.56;2071582;28;20278;-67
2023/11/15 13:22:39;;;;;;;5.40;1.52;;;;;;;8.96;91.48;96777.47;2075886;28;20194;-67
2023/11/15 13:23:42;;;;;;;6.30;1.05;;;;;;;9.07;91.39;96777.06;2073880;28;20201;-68
2023/11/15 13:24:48;;;;;;;4.93;0.90;;;;;;;8.95;91.58;96767.09;2074202;28;21232;-67
2023/11/15 13:25:51;;;;;;;5.25;1.42;;;;;;;8.99;91.54;96777.34;2072511;28;20201;-67
2023/11/15 13:26:53;;;;;;;8.38;1.13;;;;;;;8.87;91.59;96767.38;2080887;28;20643;-67
2023/11/15 13:27:56;;;;;;;6.90;1.20;;;;;;;8.93;91.08;96782.78;2081028;28;20235;-67
2023/11/15 13:28:58;;;;;;;7.40;1.00;;;;;;;8.96;91.34;96774.00;2079393;28;20197;-67
2023/11/15 13:29:59;;;;;;;5.85;1.30;;;;;;;9.32;91.13;96769.19;2081633;28;20199;-67
2023/11/15 13:31:03;;;;;;;10.60;1.70;;;;;;;9.32;91.02;96784.81;2072181;28;20300;-67
2023/11/15 13:32:04;;;;;;;3.55;1.10;;;;;;;9.93;88.54;96780.75;2071862;28;20237;-70
2023/11/15 13:33:06;;;;;;;7.72;1.55;;;;;;;9.90;87.17;96770.47;2076387;28;20197;-70
2023/11/15 13:34:07;;;;;;;6.65;1.30;;;;;;;9.64;87.81;96751.47;2078215;28;20192;-70
2023/11/15 13:35:09;;;;;;;5.70;1.30;;;;;;;9.52;87.87;96783.22;2071329;28;20330;-70
2023/11/15 13:36:11;;;;;;;6.25;1.48;;;;;;;9.39;88.79;96776.78;2072446;28;20320;-70
2023/11/15 13:37:13;;;;;;;12.63;1.65;;;;;;;9.35;89.49;96786.47;2066449;28;20210;-70
2023/11/15 13:38:15;;;;;;;4.15;1.20;;;;;;;9.41;87.90;96774.97;2067904;28;20202;-70
2023/11/15 13:39:18;;;;;;;3.28;1.30;;;;;;;10.03;86.04;96770.81;2072199;28;20226;-70
2023/11/15 13:40:20;;;;;;;6.18;2.05;;;;;;;10.48;83.16;96779.44;2072549;28;20228;-71
2023/11/15 13:41:22;;;;;;;4.40;0.93;;;;;;;10.78;81.58;96790.34;2070655;28;20249;-70
2023/11/15 13:42:28;;;;;;;8.57;1.30;;;;;;;11.28;80.41;96778.56;2072994;28;20285;-71
2023/11/15 13:43:30;;;;;;;4.55;1.00;;;;;;;11.18;80.79;96779.88;2072761;28;20197;-70
2023/11/15 13:44:31;;;;;;;6.47;1.00;;;;;;;10.54;81.89;96771.34;2070688;28;20198;-71
2023/11/15 13:45:33;;;;;;;2.15;0.98;;;;;;;10.12;82.40;96766.97;2069951;28;20820;-71
2023/11/15 13:46:36;;;;;;;7.95;1.20;;;;;;;9.99;82.71;96781.41;2069671;28;20225;-70
2023/11/15 13:47:37;;;;;;;5.57;1.08;;;;;;;10.35;82.07;96783.44;2079471;28;20205;-71
2023/11/15 13:48:40;;;;;;;6.53;1.55;;;;;;;9.97;82.59;96777.09;2078226;28;20774;-71
2023/11/15 13:49:45;;;;;;;3.33;1.27;;;;;;;9.82;83.43;96782.94;2072298;28;20204;-70
2023/11/15 13:50:46;;;;;;;10.05;1.40;;;;;;;9.66;84.57;96772.25;2068220;28;20212;-70
2023/11/15 13:51:47;;;;;;;4.03;1.35;;;;;;;9.61;84.38;96776.78;2070159;28;20719;-70
2023/11/15 13:52:50;;;;;;;4.80;0.98;;;;;;;9.56;84.09;96787.41;2071637;28;20205;-70
2023/11/15 13:53:51;;;;;;;5.50;0.98;;;;;;;9.51;83.95;96785.88;2065231;28;20214;-71
2023/11/15 13:54:53;;;;;;;5.85;1.23;;;;;;;9.48;83.67;96786.84;2066843;28;20672;-70
2023/11/15 13:55:55;;;;;;;4.28;1.05;;;;;;;9.43;83.85;96796.59;2073963;28;20710;-70
2023/11/15 13:56:57;;;;;;;5.97;1.20;;;;;;;9.39;83.94;96776.78;2072909;28;20251;-70
2023/11/15 13:57:59;;;;;;;5.28;1.10;;;;;;;9.34;84.07;96763.06;2065197;28;20292;-70
2023/11/15 13:59:00;;;;;;;6.60;1.60;;;;;;;9.42;84.95;96780.13;2064553;28;20385;-71
2023/11/15 14:00:33;;;;;;;4.40;1.13;;;;;;;9.38;84.98;96788.94;2070072;28;20205;-70
2023/11/15 14:01:25;;;;;;;2.72;0.90;;;;;;;9.28;84.70;96772.81;2069999;28;20876;-70
2023/11/15 14:02:26;;;;;;;2.70;1.10;;;;;;;9.40;85.73;96791.53;2060861;28;20214;-70
2023/11/15 14:03:28;;;;;;;7.53;1.13;;;;;;;9.39;85.92;96801.06;2059686;28;20202;-70
2023/11/15 14:04:30;;;;;;;3.28;1.10;;;;;;;9.31;85.83;96798.75;2072671;28;20201;-71
2023/11/15 14:05:41;;;;;;;4.68;1.45;;;;;;;9.32;85.63;96791.81;2074256;28;20201;-70
2023/11/15 14:06:46;;;;;;;7.43;1.58;;;;;;;9.22;85.43;96800.84;2073900;28;20276;-71
2023/11/15 14:07:48;;;;;;;8.70;1.33;;;;;;;9.20;85.94;96798.31;2073883;28;20192;-70
2023/11/15 14:08:49;;;;;;;4.90;1.17;;;;;;;9.20;85.83;96800.91;2072635;28;20255;-70
2023/11/15 14:10:00;;;;;;;7.32;1.48;;;;;;;9.17;86.06;96802.78;2071120;28;20667;-70
2023/11/15 14:11:06;;;;;;;8.30;1.42;;;;;;;9.19;86.80;96801.81;2071241;28;20753;-70
2023/11/15 14:12:10;;;;;;;4.22;1.15;;;;;;;9.28;86.72;96821.47;2072741;28;20560;-70
2023/11/15 14:13:12;;;;;;;8.20;1.33;;;;;;;9.32;85.54;96816.09;2074430;28;20564;-70
2023/11/15 14:14:14;;;;;;;4.13;1.02;;;;;;;9.30;85.31;96822.28;2076288;28;20864;-70
2023/11/15 14:15:18;;;;;;;4.65;1.10;;;;;;;9.27;85.67;96825.00;2070741;28;20208;-70
2023/11/15 14:16:20;;;;;;;9.82;1.15;;;;;;;9.30;85.05;96828.31;2071443;28;20229;-70
2023/11/15 14:17:23;;;;;;;3.33;1.25;;;;;;;9.29;85.11;96833.59;2074308;28;20221;-70
2023/11/15 14:18:25;;;;;;;8.60;1.17;;;;;;;9.44;84.44;96832.19;2077648;28;20287;-70
2023/11/15 14:19:26;;;;;;;3.50;1.27;;;;;;;9.49;83.81;96830.25;2075492;28;20582;-70
2023/11/15 14:20:29;;;;;;;9.38;1.48;;;;;;;9.41;85.03;96829.72;2067097;28;20197;-70
2023/11/15 14:21:30;;;;;;;10.90;1.98;;;;;;;9.38;85.18;96827.19;2066625;28;20233;-70
2023/11/15 14:22:32;;;;;;;5.30;1.10;;;;;;;9.31;86.12;96827.44;2072507;28;20660;-70
2023/11/15 14:23:34;;;;;;;5.75;1.30;;;;;;;9.27;86.78;96831.06;2074108;28;20285;-70
2023/11/15 14:24:35;;;;;;;5.38;1.10;;;;;;;9.25;86.57;96826.81;2073994;28;20197;-70
2023/11/15 14:25:37;;;;;;;4.15;1.23;;;;;;;9.09;86.31;96826.50;2061786;28;20241;-70